Station: Dum In Mirrie

  Atmospheric Gas Attenuation - ITU Rec 676-11   --------------- db/100km ---------------
Date Time Temp RH % AH g/m3 Dew Point Wind Direction Speed kph Gust kph Barometer mB Rainfall Since 9am 24GHz 47GHz 76GHz 122GHz 134GHz 241GHz
07 07:40 20.2 99 17.31 20 9 13 1013.1 0 37.8 39.1 73.9 195.4 212.4 737.1
07 07:30 20.1 98 17.03 19.8 7 13 1012.4 0 37.2 38.5 72.6 191.9 208.2 722.3
07 07:20 20.5 98 17.44 20.1 9 11 1013.1 0 38.1 39.2 74.2 196.2 213.6 741.3
07 07:10 20.6 98 17.54 20.2 6 7 1013.1 0 38.3 39.3 74.6 197.3 214.9 745.8
07 07:00 20.8 98 17.74 20.5 6 11 1011.9 0 38.7 39.6 75.3 199.1 217.3 754.2
07 06:50 21.2 97 17.97 20.7 6 7 1013.1 0 39.2 39.9 76.1 201.2 220.0 763.5
07 06:40 21.3 95 17.71 20.4 4 7 1013.1 0 38.6 39.3 74.7 197.6 215.6 748.2
07 06:30 21.7 92 17.55 20.3 6 15 1011.6 0 38.2 38.8 73.5 194.3 211.7 734.8
07 06:20 23 92 18.91 21.6 4 6 1013.1 0 41.0 40.8 78.8 208.5 229.5 796.7
07 06:10 23.2 93 19.33 22.1 4 6 1013.1 0 41.9 41.6 80.7 213.4 235.5 817.8
07 06:00 23.1 95 19.64 22.3 4 11 1011.2 0 42.5 42.1 82.2 217.4 240.5 835.2
07 05:50 22.9 97 19.82 22.4 6 7 1013.1 0 42.9 42.7 83.4 220.7 244.4 848.6
07 05:40 22.6 98 19.69 22.2 6 6 1013.1 0 42.7 42.6 83.1 219.9 243.3 844.7
07 05:30 22.2 99 19.44 22 4 9 1010.7 0 42.2 42.2 82.1 217.3 240.1 833.7
07 05:20 22 99 19.21 21.8 6 6 1013.1 0 41.7 41.9 81.4 215.3 237.4 824.3
07 05:10 21.7 99 18.88 21.5 2 6 1013.1 0 41.1 41.4 80.1 211.8 233.0 809.0
07 04:50 20.3 99 17.41 20.1 4 6 1013.1 0 38.0 39.2 74.3 196.4 213.7 741.6
07 04:40 19.9 99 17.01 19.7 2 4 1013.1 0 37.2 38.6 72.7 192.3 208.5 723.5
07 04:30 19.9 98 16.84 19.6 4 6 1010.4 0 36.9 38.2 71.7 189.7 205.5 712.8
07 04:20 19.9 98 16.84 19.5 4 6 1013.1 0 36.8 38.3 71.9 190.1 205.9 714.2
07 04:08 20.2 99 17.31 20 4 6 1013.1 0 37.8 39.1 73.9 195.4 212.4 737.1
07 04:00 20.6 99 17.72 20.4 2 4 1013.1 0 38.7 39.7 75.5 199.6 217.8 755.8
07 03:50 20.6 99 17.72 20.4 4 4 1013.1 0 38.7 39.7 75.5 199.6 217.8 755.8
07 03:40 20.3 99 17.41 20.1 0 0 1013.1 0 38.0 39.2 74.3 196.4 213.7 741.6
07 03:25 20.2 98 17.13 19.8 4 4 1013.1 0 37.4 38.7 73.0 193.0 209.6 727.2
07 03:19 20 98 16.93 19.6 6 6 1013.1 0 37.0 38.4 72.2 191.0 207.0 718.1
07 03:10 20.3 98 17.23 19.9 0 0 1013.1 0 37.7 38.9 73.4 194.1 210.9 731.7
07 03:00 20.4 98 17.33 20.1 0 2 1010.6 0 37.9 38.9 73.6 194.7 211.8 734.9
07 02:50 20.8 98 17.74 20.4 2 4 1013.1 0 38.7 39.6 75.4 199.3 217.5 754.9
07 02:40 21.3 99 18.45 21.1 4 4 1013.1 0 40.2 40.8 78.4 207.2 227.4 789.2
07 02:00 19.6 96 16.2 18.9 2 4 1010.8 0 35.5 37.1 69.0 182.3 196.4 681.1
07 02:09 20.4 98 17.33 20 6 6 1013.1 0 37.9 39.0 73.8 195.1 212.2 736.2
07 01:33 19.9 92 15.81 18.5 2 4 1013.1 0 34.6 36.3 67.0 177.1 189.9 658.6
07 01:30 19.9 92 15.81 18.6 0 2 1010.9 0 34.6 36.2 66.9 176.8 189.6 657.6
07 01:20 20.2 90 15.74 18.6 2 2 1013.1 0 34.5 36.1 66.4 175.5 188.1 652.3
07 01:10 20.7 90 16.2 19 0 0 1013.1 0 35.4 36.7 68.1 180.0 193.8 672.3
07 01:00 21.2 89 16.49 19.3 0 0 1013.1 0 36.0 37.0 69.0 182.5 196.9 683.3
07 00:40 22.7 89 17.98 20.8 0 0 1013.1 0 39.0 39.2 74.6 197.4 215.7 749.0
06 23:30 23.8 84 18.07 20.9 4 7 1011.6 0 39.1 38.8 73.9 195.4 213.7 742.2
06 23:28 23.8 84 18.07 20.9 6 7 1013.1 0 39.1 38.8 74.0 195.7 214.0 742.9
06 23:20 23.9 83 17.96 20.8 6 7 1013.1 0 38.9 38.6 73.4 194.0 212.0 736.1
06 21:21 24.6 80 18.01 20.9 9 9 1013.1 0 38.9 38.4 72.9 192.9 210.8 732.0
06 21:20 24.7 81 18.33 21.2 6 9 1013.1 0 39.6 38.9 74.3 196.6 215.4 747.9
06 21:07 24.7 81 18.33 21.2 9 15 1013.1 0 39.6 38.9 74.3 196.6 215.4 747.9
06 21:00 24.8 80 18.21 21.1 11 19 1011 0 39.3 38.6 73.5 194.5 212.9 739.5
06 20:50 24.7 79 17.88 20.8 13 17 1013.1 0 38.6 38.1 72.2 191.0 208.5 724.2
06 20:40 24.8 79 17.98 20.9 11 13 1013.1 0 38.8 38.2 72.6 192.0 209.8 728.5
06 20:30 24.9 80 18.31 21.2 13 20 1010.9 0 39.5 38.7 73.9 195.5 214.1 743.7
06 20:20 24.9 78 17.85 20.8 13 19 1013.1 0 38.5 37.9 71.9 190.2 207.5 720.7
06 20:10 24.9 80 18.31 21.2 15 20 1013.1 0 39.5 38.8 74.0 195.8 214.5 744.9
06 20:00 24.9 80 18.31 21.2 11 19 1010.7 0 39.5 38.7 73.9 195.5 214.1 743.6
06 19:50 24.9 80 18.31 21.2 7 9 1013.1 0 39.5 38.8 74.0 195.8 214.5 744.9
06 19:40 24.9 79 18.08 21 15 19 1013.1 0 39.0 38.4 73.0 193.0 211.0 732.8
06 19:30 24.9 79 18.08 21 9 19 1010.4 0 39.0 38.2 72.8 192.6 210.6 731.4
06 19:20 25 80 18.42 21.3 11 15 1013.1 0 39.7 38.9 74.5 196.9 215.9 749.7
06 19:10 25 80 18.42 21.3 11 17 1013.1 0 39.7 38.9 74.5 196.9 215.9 749.7
06 19:00 25 80 18.42 21.3 7 17 1010.3 0 39.7 38.8 74.3 196.5 215.4 748.3
06 18:50 25.1 80 18.52 21.4 7 11 1013.1 0 39.9 39.1 74.8 197.9 217.1 754.0
06 18:40 25.2 79 18.39 21.3 6 7 1013.1 0 39.6 38.8 74.1 196.0 214.8 746.2
06 18:30 25.4 77 18.13 21.1 7 15 1010.2 0 39.1 38.1 72.5 191.9 209.9 729.1
06 18:20 25.7 76 18.2 21.1 7 11 1013.1 0 39.2 38.2 72.8 192.4 210.5 731.3
06 18:09 26 72 17.53 20.7 4 6 1013.1 0 37.7 36.9 69.4 183.6 199.8 694.0
06 18:00 26.5 72 18.02 21 6 13 1009.9 0 38.7 37.4 71.0 187.8 205.2 712.8
06 17:50 26.7 72 18.23 21.2 6 6 1013.1 0 39.2 37.8 71.9 190.3 208.2 723.3
06 17:40 27.2 70 18.22 21.4 6 7 1013.1 0 39.1 37.6 71.4 188.9 206.7 718.1
06 17:30 27.1 70 18.12 21.2 7 17 1009.9 0 38.9 37.3 70.9 187.5 205.0 712.4
06 17:20 27.4 70 18.42 21.6 6 7 1013.1 0 39.5 37.8 72.1 190.8 209.1 726.4
06 17:10 27.6 70 18.62 21.8 9 13 1013.1 0 39.9 38.1 72.9 192.7 211.5 734.8
06 17:00 27.5 70 18.52 21.5 7 19 1009.9 0 39.7 37.9 72.3 191.3 209.8 729.0
06 16:50 27.9 68 18.39 21.6 9 11 1013.1 0 39.4 37.6 71.5 189.2 207.3 720.2
06 16:40 28.1 67 18.32 21.4 4 6 1013.1 0 39.2 37.4 71.0 187.9 205.7 714.8
06 16:30 28.3 65 17.97 21.3 6 17 1009.6 0 38.5 36.5 69.1 182.8 199.6 693.7
06 16:20 28.5 66 18.45 21.5 6 7 1013.1 0 39.4 37.4 71.3 188.5 206.5 717.6
06 16:10 28.8 64 18.19 21.5 6 7 1013.1 0 38.9 36.8 69.8 184.7 201.9 701.8
06 16:00 28.6 66 18.55 21.6 9 20 1009.5 0 39.7 37.4 71.4 188.9 207.1 719.9
06 15:50 28.9 64 18.29 21.4 6 6 1013.1 0 39.1 37.0 70.2 185.6 203.1 705.9
06 15:39 28.8 64 18.19 21.5 7 13 1013.1 0 38.9 36.8 69.8 184.7 201.9 701.8
06 15:30 28.8 65 18.47 21.6 9 20 1009.6 0 39.5 37.2 70.9 187.5 205.5 714.1
06 15:20 28.2 65 17.87 21 15 19 1013.1 0 38.2 36.5 69.0 182.4 198.9 691.3
06 15:10 29.2 65 18.88 22.1 7 11 1013.1 0 40.3 37.9 72.5 191.8 210.8 732.7
06 15:00 29.4 66 19.38 22.4 9 17 1010 0 41.3 38.5 74.4 196.8 217.0 754.5
06 14:50 28.9 66 18.86 21.9 7 9 1013.1 0 40.3 38.0 72.7 192.3 211.3 734.5
06 14:40 29.7 65 19.4 22.4 9 15 1013.1 0 41.3 38.6 74.3 196.7 216.9 754.1
06 14:30 29.3 64 18.69 22 9 19 1010.4 0 39.9 37.4 71.4 188.9 207.4 720.8
06 14:20 29.2 64 18.59 21.9 6 7 1013.1 0 39.7 37.4 71.2 188.4 206.6 718.1
06 14:10 27.7 67 17.92 21.2 6 6 1013.1 0 38.4 36.8 69.6 184.2 201.0 698.3
06 14:00 29 64 18.39 21.7 9 19 1010.8 0 39.3 37.0 70.4 186.2 203.9 708.8
06 13:50 28.8 64 18.19 21.3 11 15 1013.1 0 38.9 36.8 69.8 184.7 201.9 701.8
06 13:40 29.8 65 19.5 22.5 7 11 1013.1 0 41.5 38.7 74.7 197.6 218.1 758.2
06 13:30 28.5 66 18.45 21.5 11 20 1011 0 39.5 37.3 71.1 188.2 206.2 716.6
06 13:20 28.4 68 18.9 21.9 13 17 1013.1 0 40.4 38.3 73.4 194.1 213.3 741.4
06 13:10 28.9 64 18.29 21.6 11 17 1013.1 0 39.1 37.0 70.2 185.6 203.1 705.9
06 13:00 29.3 66 19.27 22.3 9 20 1011.5 0 41.1 38.5 74.0 195.9 215.9 750.6
06 12:50 29.5 65 19.19 22.2 6 7 1013.1 0 40.9 38.3 73.6 194.7 214.5 745.4
06 12:40 29.3 64 18.69 22 6 13 1013.1 0 39.9 37.5 71.6 189.3 207.8 722.2
06 12:30 28.7 66 18.65 21.7 9 17 1011.8 0 39.8 37.6 71.9 190.1 208.7 725.2
06 12:20 28.9 64 18.29 21.6 6 9 1013.1 0 39.1 37.0 70.2 185.6 203.1 705.9
06 12:10 28.9 64 18.29 21.4 11 17 1013.1 0 39.1 37.0 70.2 185.6 203.1 705.9
06 12:00 29.6 64 19 22.1 6 11 1012.1 0 40.5 37.9 72.6 192.1 211.3 734.4
06 11:50 28.7 64 18.09 21.4 9 15 1013.1 0 38.7 36.7 69.5 183.8 200.8 697.7

Last Refresh: 07-Aug-2020 07:52:15

Most of the information presented on this site is sourced from the Bureau of Meteorology.  Copyright in all material sourced from the Bureau of Meteorology resides with the Commonwealth of Australia.